Time;durP1;ratioP1;P1;durP2;ratioP2;P2;SDS_P1;SDS_P2;PMS_P1;PMS_P2;Temp;Humidity;BMP_temperature;BMP_pressure;BME280_temperature;BME280_humidity;BME280_pressure;Samples;Min_cycle;Max_cycle;Signal;HPM_P1;HPM_P2
2023/05/05 00:01:12;;;;;;;5.35;2.50;;;10.80;99.90;;;;;;5019812;28;20565;-67
2023/05/05 00:03:37;;;;;;;;;;;10.90;99.90;;;;;;5039969;28;20048;-68
2023/05/05 00:06:06;;;;;;;6.45;2.92;;;10.90;99.90;;;;;;5038166;28;19974;-66
2023/05/05 00:08:32;;;;;;;4.57;2.60;;;11.00;99.90;;;;;;5038410;28;20091;-67
2023/05/05 00:10:58;;;;;;;;;;;11.00;99.90;;;;;;5040020;28;20045;-67
2023/05/05 00:13:24;;;;;;;12.35;3.67;;;11.10;99.90;;;;;;5023096;28;19947;-67
2023/05/05 00:15:50;;;;;;;;;;;11.20;99.90;;;;;;5039589;28;20687;-67
2023/05/05 00:18:17;;;;;;;5.67;3.13;;;11.20;99.90;;;;;;5030647;28;20032;-67
2023/05/05 00:20:45;;;;;;;4.85;2.75;;;11.30;99.90;;;;;;5026657;28;20068;-67
2023/05/05 00:23:11;;;;;;;6.45;2.88;;;11.30;99.90;;;;;;5025118;28;20068;-66
2023/05/05 00:25:37;;;;;;;;;;;11.30;99.90;;;;;;5027490;28;20485;-67
2023/05/05 00:28:02;;;;;;;5.13;2.47;;;11.30;99.90;;;;;;5025387;28;19928;-66
2023/05/05 00:30:28;;;;;;;;;;;11.30;99.90;;;;;;5026656;28;20501;-66
2023/05/05 00:32:55;;;;;;;4.60;2.40;;;11.40;99.90;;;;;;5045262;28;19916;-67
2023/05/05 00:35:20;;;;;;;7.30;2.53;;;11.40;99.90;;;;;;5034536;28;20037;-67
2023/05/05 00:37:46;;;;;;;;;;;11.40;99.90;;;;;;5028951;28;20052;-67
2023/05/05 00:40:12;;;;;;;7.82;2.42;;;11.50;99.90;;;;;;5044348;28;20507;-68
2023/05/05 00:42:45;;;;;;;;;;;11.50;99.90;;;;;;5029132;28;20123;-67
2023/05/05 00:45:15;;;;;;;4.45;2.53;;;11.50;99.40;;;;;;5043114;28;20316;-67
2023/05/05 00:47:48;;;;;;;4.22;2.33;;;11.60;98.90;;;;;;5023964;28;20406;-67
2023/05/05 00:50:24;;;;;;;3.25;2.25;;;11.70;99.40;;;;;;5045510;28;20044;-67
2023/05/05 00:52:52;;;;;;;5.50;2.33;;;11.70;99.70;;;;;;5042653;28;20064;-66
2023/05/05 00:55:19;;;;;;;6.40;2.30;;;11.70;99.10;;;;;;5028098;28;20076;-66
2023/05/05 00:57:44;;;;;;;;;;;11.60;99.30;;;;;;5046937;28;20052;-67
2023/05/05 01:00:11;;;;;;;5.60;2.58;;;11.70;98.90;;;;;;5046093;28;20012;-67
2023/05/05 01:02:38;;;;;;;5.35;3.13;;;11.70;98.50;;;;;;5041576;28;20068;-66
2023/05/05 01:05:05;;;;;;;5.07;2.40;;;11.80;98.70;;;;;;5042833;28;20041;-66
2023/05/05 01:07:53;;;;;;;4.85;2.63;;;11.80;98.50;;;;;;5044086;28;20086;-67
2023/05/05 01:10:41;;;;;;;5.82;2.60;;;11.80;98.50;;;;;;5045752;28;20212;-68
2023/05/05 01:13:42;;;;;;;14.30;3.28;;;11.80;98.40;;;;;;5042629;28;20074;-66
2023/05/05 01:16:19;;;;;;;6.85;2.17;;;11.80;98.80;;;;;;5041424;28;20041;-67
2023/05/05 01:18:55;;;;;;;3.70;2.17;;;11.80;98.40;;;;;;5043887;28;20036;-66
2023/05/05 01:21:27;;;;;;;4.38;2.25;;;11.80;98.30;;;;;;5045291;28;20045;-67
2023/05/05 01:24:21;;;;;;;5.53;2.65;;;11.80;98.20;;;;;;5045823;28;20049;-67
2023/05/05 01:27:20;;;;;;;5.32;2.58;;;11.80;98.20;;;;;;5027433;28;20592;-67
2023/05/05 01:30:18;;;;;;;10.18;2.85;;;11.80;98.10;;;;;;5044357;28;20052;-67
2023/05/05 01:32:54;;;;;;;4.68;2.40;;;11.90;98.00;;;;;;5026562;28;20052;-66
2023/05/05 01:35:34;;;;;;;4.53;2.15;;;11.90;97.70;;;;;;5044923;28;20390;-66
2023/05/05 01:38:15;;;;;;;6.15;2.28;;;11.90;98.20;;;;;;5041409;28;20947;-67
2023/05/05 01:41:09;;;;;;;3.40;2.20;;;11.90;98.20;;;;;;5023222;28;20041;-67
2023/05/05 01:43:35;;;;;;;4.05;2.83;;;11.90;98.50;;;;;;5041461;28;20048;-66
2023/05/05 01:46:02;;;;;;;5.50;2.40;;;11.90;98.40;;;;;;5024899;28;20064;-66
2023/05/05 01:48:32;;;;;;;6.65;2.70;;;11.90;98.50;;;;;;5026540;28;20134;-66
2023/05/05 01:50:59;;;;;;;5.45;2.78;;;11.80;98.40;;;;;;5040752;28;20037;-66
2023/05/05 01:53:26;;;;;;;3.83;2.33;;;11.80;98.40;;;;;;5043931;28;20191;-67
2023/05/05 01:55:53;;;;;;;4.10;2.30;;;11.80;98.80;;;;;;5027176;28;20044;-67
2023/05/05 01:58:21;;;;;;;3.58;2.38;;;11.80;99.10;;;;;;5026462;28;20087;-67
2023/05/05 02:00:48;;;;;;;7.07;2.50;;;11.80;98.90;;;;;;5042509;28;20041;-67
2023/05/05 02:03:16;;;;;;;6.90;2.60;;;11.80;98.80;;;;;;5043716;28;20033;-67
2023/05/05 02:05:44;;;;;;;5.13;2.72;;;11.80;99.00;;;;;;5028465;28;20468;-67
2023/05/05 02:08:11;;;;;;;5.40;2.63;;;11.80;99.30;;;;;;5045074;28;20045;-66
2023/05/05 02:10:39;;;;;;;4.03;2.42;;;11.90;99.30;;;;;;5043417;28;20036;-65
2023/05/05 02:13:06;;;;;;;4.68;2.53;;;11.90;99.20;;;;;;5044785;28;20043;-65
2023/05/05 02:15:34;;;;;;;9.73;2.55;;;11.90;99.40;;;;;;5024007;28;20516;-67
2023/05/05 02:18:01;;;;;;;3.22;2.63;;;11.90;99.30;;;;;;5024307;28;20047;-67
2023/05/05 02:20:29;;;;;;;7.00;2.25;;;11.90;99.10;;;;;;5042686;28;20039;-68
2023/05/05 02:22:55;;;;;;;4.70;2.45;;;11.90;99.20;;;;;;5026393;28;20056;-67
2023/05/05 02:25:22;;;;;;;;;;;11.80;99.50;;;;;;5042624;28;20493;-67
2023/05/05 02:27:49;;;;;;;4.20;2.58;;;11.80;99.90;;;;;;5042856;28;20316;-67
2023/05/05 02:30:18;;;;;;;5.20;2.40;;;11.70;99.90;;;;;;5041453;28;20116;-67
2023/05/05 02:32:53;;;;;;;4.85;2.67;;;11.60;99.90;;;;;;5044116;28;20045;-67
2023/05/05 02:35:23;;;;;;;6.43;2.88;;;11.60;99.90;;;;;;5044045;28;20175;-66
2023/05/05 02:37:58;;;;;;;4.88;2.45;;;11.60;99.90;;;;;;5026813;28;20156;-67
2023/05/05 02:40:25;;;;;;;8.23;2.88;;;11.50;99.90;;;;;;5032867;28;20064;-67
2023/05/05 02:42:53;;;;;;;4.07;2.58;;;11.50;99.90;;;;;;5040757;28;20786;-66
2023/05/05 02:45:21;;;;;;;4.78;2.88;;;11.40;99.90;;;;;;5043142;28;20045;-66
2023/05/05 02:47:47;;;;;;;7.00;3.03;;;11.40;99.90;;;;;;5044083;28;20090;-67
2023/05/05 02:50:12;;;;;;;;;;;11.30;99.90;;;;;;5026091;28;20124;-67
2023/05/05 02:52:39;;;;;;;5.00;3.10;;;11.30;99.90;;;;;;5043951;28;19916;-66
2023/05/05 02:55:05;;;;;;;5.53;2.90;;;11.20;99.90;;;;;;5044035;28;20041;-66
2023/05/05 02:57:59;;;;;;;4.05;2.88;;;11.30;99.90;;;;;;5044071;28;20056;-66
2023/05/05 03:00:38;;;;;;;4.68;2.53;;;11.30;99.90;;;;;;5041288;28;20041;-66
2023/05/05 03:03:16;;;;;;;4.07;2.92;;;11.30;99.90;;;;;;5039652;28;20524;-67
2023/05/05 03:05:52;;;;;;;4.68;2.88;;;11.30;99.90;;;;;;5040914;28;20047;-67
2023/05/05 03:08:42;;;;;;;3.90;2.70;;;11.40;99.90;;;;;;5044011;28;20032;-67
2023/05/05 03:11:17;;;;;;;6.88;2.70;;;11.40;99.90;;;;;;5024584;28;20033;-67
2023/05/05 03:13:45;;;;;;;5.22;2.85;;;11.40;99.90;;;;;;5042848;28;20060;-67
2023/05/05 03:16:13;;;;;;;4.78;2.75;;;11.40;99.90;;;;;;5043331;28;20048;-66
2023/05/05 03:18:41;;;;;;;5.13;2.60;;;11.40;99.90;;;;;;5044428;28;20049;-67
2023/05/05 03:21:07;;;;;;;6.53;2.67;;;11.50;99.90;;;;;;5043125;28;20041;-67
2023/05/05 03:23:35;;;;;;;6.03;2.67;;;11.50;99.90;;;;;;5025925;28;20048;-67
2023/05/05 03:26:00;;;;;;;5.72;2.67;;;11.60;99.90;;;;;;5047480;28;20045;-68
2023/05/05 03:28:26;;;;;;;;;;;11.60;99.90;;;;;;5044847;28;20051;-67
2023/05/05 03:30:52;;;;;;;4.45;2.72;;;11.70;99.90;;;;;;5033550;28;19913;-67
2023/05/05 03:33:18;;;;;;;4.88;3.03;;;11.70;99.90;;;;;;5021763;28;20037;-67
2023/05/05 03:35:43;;;;;;;;;;;11.60;99.90;;;;;;5019409;28;20079;-67
2023/05/05 03:38:09;;;;;;;5.28;2.90;;;11.60;99.90;;;;;;5023715;28;20560;-66
2023/05/05 03:40:35;;;;;;;;;;;11.60;99.90;;;;;;5004523;28;20500;-66
2023/05/05 03:43:00;;;;;;;7.90;3.42;;;11.50;99.90;;;;;;5002602;28;20012;-66
2023/05/05 03:45:26;;;;;;;;;;;11.40;99.90;;;;;;5009617;28;20088;-65
2023/05/05 03:47:51;;;;;;;5.68;2.92;;;11.40;99.90;;;;;;5024431;28;19921;-68
2023/05/05 03:50:17;;;;;;;;;;;11.30;99.90;;;;;;5023518;28;20088;-66
2023/05/05 03:52:43;;;;;;;5.78;2.65;;;11.40;99.90;;;;;;5022712;28;19975;-67
2023/05/05 03:55:08;;;;;;;;;;;11.40;99.90;;;;;;5024795;28;20029;-67
2023/05/05 03:57:34;;;;;;;10.55;2.60;;;11.50;99.90;;;;;;5021416;28;20047;-66
2023/05/05 04:00:00;;;;;;;;;;;11.50;99.90;;;;;;5026601;28;20053;-70
2023/05/05 04:02:25;;;;;;;3.38;2.45;;;11.60;99.90;;;;;;5024893;28;19920;-66
2023/05/05 04:04:51;;;;;;;;;;;11.60;99.90;;;;;;5047470;28;20041;-66
2023/05/05 04:07:17;;;;;;;3.28;2.22;;;11.60;99.90;;;;;;5045873;28;19966;-67
2023/05/05 04:09:45;;;;;;;;;;;11.60;99.90;;;;;;5029846;28;20094;-66
2023/05/05 04:12:11;;;;;;;6.75;3.25;;;11.60;99.90;;;;;;5043417;28;19956;-67
2023/05/05 04:14:37;;;;;;;;;;;11.60;99.90;;;;;;5047104;28;20061;-66
2023/05/05 04:17:02;;;;;;;5.10;2.70;;;11.60;99.90;;;;;;5046809;28;19987;-66
2023/05/05 04:19:31;;;;;;;;;;;11.70;99.90;;;;;;5047786;28;20041;-66
2023/05/05 04:21:58;;;;;;;7.25;2.83;;;11.70;99.90;;;;;;5045716;28;19971;-66
2023/05/05 04:24:24;;;;;;;8.98;3.00;;;11.80;99.90;;;;;;5046815;28;20041;-67
2023/05/05 04:26:53;;;;;;;6.93;3.28;;;11.80;99.90;;;;;;5046598;28;20048;-67
2023/05/05 04:29:19;;;;;;;6.65;2.85;;;11.90;99.90;;;;;;5046801;28;20099;-66
2023/05/05 04:31:44;;;;;;;;;;;11.90;99.90;;;;;;5042964;28;20072;-66
2023/05/05 04:34:10;;;;;;;8.77;2.80;;;11.90;99.90;;;;;;5046774;28;19916;-66
2023/05/05 04:36:36;;;;;;;;;;;12.00;99.90;;;;;;5045818;28;20412;-66
2023/05/05 04:39:02;;;;;;;7.72;3.00;;;12.00;99.90;;;;;;5046580;28;20058;-67
2023/05/05 04:41:28;;;;;;;5.00;2.55;;;12.20;99.90;;;;;;5026622;28;20064;-67
2023/05/05 04:43:56;;;;;;;;;;;12.30;99.90;;;;;;5046443;28;20855;-66
2023/05/05 04:46:23;;;;;;;4.53;2.63;;;12.40;99.90;;;;;;5031342;28;19921;-66
2023/05/05 04:48:49;;;;;;;6.60;2.92;;;12.50;99.90;;;;;;5028623;28;20517;-66
2023/05/05 04:51:15;;;;;;;;;;;12.60;99.90;;;;;;5044752;28;20112;-67
2023/05/05 04:53:41;;;;;;;13.73;3.22;;;12.70;99.90;;;;;;5042445;28;19917;-66
2023/05/05 04:56:07;;;;;;;6.15;2.95;;;12.80;99.90;;;;;;5046218;28;20045;-67
2023/05/05 04:58:33;;;;;;;;;;;12.80;99.90;;;;;;5046890;28;20040;-66
2023/05/05 05:00:58;;;;;;;6.70;3.35;;;12.90;99.90;;;;;;5043503;28;20396;-66
2023/05/05 05:03:24;;;;;;;;;;;12.90;99.90;;;;;;5026840;28;20032;-66
2023/05/05 05:05:50;;;;;;;3.85;2.45;;;12.90;99.90;;;;;;5025210;28;19924;-67
2023/05/05 05:08:16;;;;;;;;;;;12.90;99.90;;;;;;5046022;28;20174;-67
2023/05/05 05:10:42;;;;;;;5.38;3.13;;;13.00;99.90;;;;;;5044308;28;19917;-66
2023/05/05 05:13:08;;;;;;;7.15;3.42;;;13.00;99.90;;;;;;5028827;28;20037;-67
2023/05/05 05:15:36;;;;;;;7.38;3.53;;;13.10;99.90;;;;;;5023227;28;20360;-67
2023/05/05 05:18:03;;;;;;;5.93;3.33;;;13.20;99.90;;;;;;5045161;28;20037;-67
2023/05/05 05:20:29;;;;;;;;;;;13.60;99.90;;;;;;5046877;28;20544;-67
2023/05/05 05:22:56;;;;;;;6.63;3.63;;;13.80;99.90;;;;;;5045669;28;19920;-67
2023/05/05 05:25:22;;;;;;;15.23;3.78;;;14.00;99.90;;;;;;5043619;28;20037;-67
2023/05/05 05:27:47;;;;;;;;;;;14.20;99.90;;;;;;5045425;28;20056;-67
2023/05/05 05:30:13;;;;;;;6.25;3.03;;;14.30;99.90;;;;;;5045844;28;19917;-67
2023/05/05 05:32:38;;;;;;;;;;;14.70;99.90;;;;;;5044891;28;20136;-67
2023/05/05 05:35:04;;;;;;;6.40;3.25;;;14.80;99.90;;;;;;5045284;28;19978;-66
2023/05/05 05:37:30;;;;;;;;;;;14.80;99.90;;;;;;5043489;28;20523;-69
2023/05/05 05:39:56;;;;;;;8.60;4.55;;;14.80;99.90;;;;;;5040991;28;19921;-69
2023/05/05 05:42:21;;;;;;;;;;;14.80;99.90;;;;;;5038825;28;20405;-69
2023/05/05 05:44:47;;;;;;;10.57;4.03;;;15.00;99.90;;;;;;5047904;28;20031;-69
2023/05/05 05:47:13;;;;;;;;;;;15.20;99.90;;;;;;5038722;28;20790;-69
2023/05/05 05:49:38;;;;;;;8.38;5.18;;;15.20;99.90;;;;;;5045360;28;20386;-70
2023/05/05 05:52:04;;;;;;;10.35;4.68;;;15.70;99.90;;;;;;5044213;28;20036;-65
2023/05/05 05:54:33;;;;;;;8.82;4.38;;;15.80;99.90;;;;;;5044822;28;20148;-67
2023/05/05 05:56:59;;;;;;;8.35;4.45;;;16.50;99.90;;;;;;5045802;28;20049;-68
2023/05/05 05:59:24;;;;;;;;;;;17.30;99.90;;;;;;5044680;28;20041;-66
2023/05/05 06:01:50;;;;;;;5.95;4.75;;;18.80;97.40;;;;;;5039629;28;20000;-69
2023/05/05 06:04:15;;;;;;;;;;;19.70;94.70;;;;;;5043183;28;20756;-67
2023/05/05 06:06:41;;;;;;;5.80;4.72;;;19.80;93.70;;;;;;5044233;28;19982;-68
2023/05/05 06:09:07;;;;;;;9.05;4.93;;;20.20;93.90;;;;;;5044262;28;20125;-67
2023/05/05 06:11:33;;;;;;;10.13;5.22;;;20.00;94.10;;;;;;5044595;28;20705;-67
2023/05/05 06:13:59;;;;;;;8.00;4.18;;;19.60;94.10;;;;;;5044416;28;20049;-68
2023/05/05 06:16:25;;;;;;;;;;;19.30;95.30;;;;;;5042986;28;20378;-67
2023/05/05 06:18:50;;;;;;;7.32;5.60;;;18.90;96.00;;;;;;5042647;28;19927;-67
2023/05/05 06:21:19;;;;;;;;;;;18.80;96.80;;;;;;5024570;28;20520;-67
2023/05/05 06:23:45;;;;;;;9.60;6.97;;;18.50;96.70;;;;;;5043368;28;19921;-67
2023/05/05 06:26:11;;;;;;;9.48;7.00;;;18.10;97.70;;;;;;5024047;28;20049;-68
2023/05/05 06:28:36;;;;;;;;;;;17.90;98.30;;;;;;5024749;28;20043;-67
2023/05/05 06:31:02;;;;;;;9.30;6.25;;;17.80;98.40;;;;;;5040799;28;20352;-67
2023/05/05 06:33:28;;;;;;;;;;;17.70;98.70;;;;;;5020989;28;20472;-65
2023/05/05 06:35:54;;;;;;;8.68;6.47;;;17.60;98.60;;;;;;5023265;28;19924;-65
2023/05/05 06:38:20;;;;;;;9.10;6.47;;;17.60;99.20;;;;;;5022206;28;20045;-65
2023/05/05 06:40:48;;;;;;;;;;;17.90;98.80;;;;;;5021798;28;20037;-66
2023/05/05 06:43:15;;;;;;;12.20;8.20;;;18.90;97.20;;;;;;5020845;28;19920;-66
2023/05/05 06:45:41;;;;;;;12.13;7.90;;;19.00;96.80;;;;;;5000731;28;20116;-65
2023/05/05 06:48:07;;;;;;;14.70;7.15;;;18.70;97.40;;;;;;5008561;28;20075;-67
2023/05/05 06:50:32;;;;;;;;;;;18.90;97.50;;;;;;5023454;28;20080;-68
2023/05/05 06:52:58;;;;;;;9.90;7.50;;;18.90;97.30;;;;;;5022011;28;19979;-67
2023/05/05 06:55:24;;;;;;;13.63;7.50;;;18.50;97.60;;;;;;5039121;28;20850;-67
2023/05/05 06:57:50;;;;;;;17.88;7.85;;;18.50;98.30;;;;;;5023590;28;20044;-69
2023/05/05 07:00:16;;;;;;;14.10;8.57;;;18.20;98.70;;;;;;5022999;28;20041;-67
2023/05/05 07:02:42;;;;;;;10.63;7.25;;;17.90;99.10;;;;;;5039830;28;20595;-67
2023/05/05 07:05:08;;;;;;;;;;;17.70;99.60;;;;;;5043980;28;20041;-67
2023/05/05 07:07:35;;;;;;;17.02;7.32;;;17.50;99.90;;;;;;5044473;28;19960;-68
2023/05/05 07:10:00;;;;;;;10.35;6.93;;;17.50;99.90;;;;;;5042478;28;20128;-67
2023/05/05 07:12:27;;;;;;;;;;;17.60;99.90;;;;;;5041642;28;20124;-67
2023/05/05 07:14:53;;;;;;;10.98;7.20;;;18.00;99.60;;;;;;5040260;28;19920;-67
2023/05/05 07:17:19;;;;;;;9.65;6.72;;;18.50;98.40;;;;;;5042937;28;20446;-67
2023/05/05 07:19:44;;;;;;;12.55;7.05;;;19.30;97.70;;;;;;5043779;28;20044;-67
2023/05/05 07:22:10;;;;;;;10.27;7.32;;;20.00;97.20;;;;;;5023503;28;20091;-68
2023/05/05 07:24:35;;;;;;;10.68;7.22;;;20.40;96.40;;;;;;5040661;28;20048;-67
2023/05/05 07:27:01;;;;;;;11.20;6.57;;;20.60;95.60;;;;;;5026770;28;20064;-67
2023/05/05 07:29:27;;;;;;;13.32;7.82;;;20.90;95.20;;;;;;5047229;28;20037;-67
2023/05/05 07:31:52;;;;;;;11.15;6.90;;;21.00;95.20;;;;;;5043036;28;20534;-67
2023/05/05 07:34:18;;;;;;;16.27;7.43;;;21.20;94.50;;;;;;5043346;28;20124;-68
2023/05/05 07:36:44;;;;;;;11.38;7.13;;;21.30;94.50;;;;;;5045101;28;20087;-68
2023/05/05 07:39:09;;;;;;;9.98;7.00;;;21.20;94.10;;;;;;5046385;28;20037;-68
2023/05/05 07:41:35;;;;;;;11.15;6.47;;;21.40;93.90;;;;;;5046574;28;20040;-67
2023/05/05 07:44:01;;;;;;;9.52;6.55;;;21.50;94.00;;;;;;5043485;28;20037;-68
2023/05/05 07:46:30;;;;;;;10.00;6.13;;;21.90;92.80;;;;;;5042117;28;20044;-66
2023/05/05 07:48:55;;;;;;;9.30;6.32;;;22.20;93.00;;;;;;5045113;28;20110;-66
2023/05/05 07:51:21;;;;;;;12.07;7.35;;;22.80;91.50;;;;;;5043853;28;20045;-65
2023/05/05 07:53:47;;;;;;;13.50;6.45;;;23.00;91.10;;;;;;5043719;28;20128;-66
2023/05/05 07:56:13;;;;;;;10.70;6.80;;;23.50;90.70;;;;;;5035803;28;20038;-65
2023/05/05 07:58:38;;;;;;;7.05;5.10;;;23.90;89.00;;;;;;5034344;28;20045;-66
2023/05/05 08:01:05;;;;;;;7.10;5.63;;;24.80;89.60;;;;;;5044020;28;20047;-66
2023/05/05 08:03:31;;;;;;;6.18;4.88;;;25.40;86.10;;;;;;5045570;28;20037;-66
2023/05/05 08:06:05;;;;;;;11.40;5.55;;;26.20;84.10;;;;;;5044739;28;20638;-66
2023/05/05 08:08:31;;;;;;;7.93;6.05;;;26.50;82.70;;;;;;5043629;28;20037;-66
2023/05/05 08:10:57;;;;;;;12.43;7.40;;;25.50;82.00;;;;;;5045383;28;20064;-66
2023/05/05 08:13:23;;;;;;;12.20;6.40;;;24.60;82.60;;;;;;5045467;28;20064;-66
2023/05/05 08:15:49;;;;;;;9.82;5.88;;;24.00;86.20;;;;;;5040970;28;20036;-66
2023/05/05 08:18:14;;;;;;;9.45;6.75;;;23.40;88.40;;;;;;5046580;28;20128;-65
2023/05/05 08:20:40;;;;;;;15.82;6.63;;;22.60;90.20;;;;;;5045497;28;20508;-65
2023/05/05 08:23:06;;;;;;;9.15;5.82;;;21.70;91.10;;;;;;5041633;28;20045;-66
2023/05/05 08:25:31;;;;;;;7.85;5.57;;;21.50;92.30;;;;;;5043703;28;20093;-65
2023/05/05 08:27:57;;;;;;;10.82;6.82;;;21.40;92.60;;;;;;5045262;28;20044;-65
2023/05/05 08:30:23;;;;;;;9.93;7.05;;;21.30;92.90;;;;;;5044928;28;20040;-65
2023/05/05 08:32:48;;;;;;;15.60;8.25;;;21.40;94.00;;;;;;5044324;28;20123;-65
2023/05/05 08:35:14;;;;;;;13.75;8.07;;;21.20;93.70;;;;;;5043103;28;20412;-65
2023/05/05 08:37:40;;;;;;;15.63;8.93;;;20.90;93.70;;;;;;5044580;28;20101;-65
2023/05/05 08:40:06;;;;;;;14.90;10.10;;;20.90;93.50;;;;;;5044460;28;20037;-65
2023/05/05 08:42:33;;;;;;;18.40;8.77;;;20.60;93.80;;;;;;5044651;28;20041;-65
2023/05/05 08:44:58;;;;;;;75.38;10.88;;;20.40;94.50;;;;;;5039547;28;20060;-65
2023/05/05 08:47:25;;;;;;;16.08;8.35;;;20.30;95.60;;;;;;5042884;28;20115;-64
2023/05/05 08:49:54;;;;;;;11.98;9.07;;;20.30;96.00;;;;;;5042816;28;20032;-67
2023/05/05 08:52:23;;;;;;;21.90;9.95;;;20.60;94.10;;;;;;5040162;28;20448;-66
2023/05/05 08:54:59;;;;;;;13.23;9.93;;;20.70;94.50;;;;;;5044322;28;20048;-65
2023/05/05 08:57:35;;;;;;;13.13;8.95;;;20.80;95.00;;;;;;5045272;28;20109;-67
2023/05/05 09:00:02;;;;;;;15.18;10.40;;;20.70;95.00;;;;;;5039478;28;20400;-66
2023/05/05 09:02:30;;;;;;;14.48;9.18;;;20.60;94.60;;;;;;5035215;28;20044;-66
2023/05/05 09:04:56;;;;;;;12.43;9.00;;;20.40;94.70;;;;;;5044810;28;20036;-66
2023/05/05 09:07:22;;;;;;;12.40;8.38;;;20.60;94.60;;;;;;5045307;28;20359;-66
2023/05/05 09:09:48;;;;;;;11.68;8.32;;;20.80;94.50;;;;;;5044438;28;20074;-66
2023/05/05 09:12:14;;;;;;;14.93;8.70;;;21.10;94.20;;;;;;5042745;28;20037;-66
2023/05/05 09:14:40;;;;;;;16.35;9.45;;;21.20;94.80;;;;;;5041750;28;20447;-66
2023/05/05 09:17:20;;;;;;;12.25;8.70;;;21.00;94.60;;;;;;5041957;28;20040;-66
2023/05/05 09:20:06;;;;;;;17.75;11.55;;;21.00;95.70;;;;;;5044150;28;20098;-72
2023/05/05 09:22:34;;;;;;;17.40;11.25;;;20.50;96.90;;;;;;5044279;28;20048;-67
2023/05/05 09:25:00;;;;;;;15.80;10.38;;;20.40;97.00;;;;;;5044666;28;20130;-66
2023/05/05 09:27:26;;;;;;;19.63;11.52;;;20.50;96.00;;;;;;5044819;28;20071;-66
2023/05/05 09:29:53;;;;;;;14.35;11.05;;;20.50;95.60;;;;;;5044132;28;20552;-66
2023/05/05 09:32:19;;;;;;;18.42;12.70;;;20.40;96.20;;;;;;5042371;28;20095;-66
2023/05/05 09:34:57;;;;;;;19.75;12.30;;;20.00;96.70;;;;;;5010033;28;20072;-66
2023/05/05 09:37:30;;;;;;;13.57;10.65;;;20.00;97.50;;;;;;5054610;28;20647;-65
2023/05/05 09:39:59;;;;;;;17.40;10.65;;;20.10;97.10;;;;;;5037425;28;20037;-66
2023/05/05 09:42:25;;;;;;;15.95;10.52;;;20.10;96.20;;;;;;5042314;28;20929;-66
2023/05/05 09:44:51;;;;;;;13.82;9.70;;;20.20;96.40;;;;;;5045841;28;20160;-66
2023/05/05 09:47:18;;;;;;;16.77;9.70;;;20.30;96.40;;;;;;5045497;28;20076;-66
2023/05/05 09:49:44;;;;;;;14.20;10.45;;;20.20;96.70;;;;;;5037587;28;20033;-66
2023/05/05 09:52:16;;;;;;;14.63;10.10;;;20.10;96.40;;;;;;5036407;28;20033;-66
2023/05/05 09:54:43;;;;;;;16.27;9.88;;;19.90;96.90;;;;;;5037305;28;20057;-67
2023/05/05 09:57:25;;;;;;;18.30;10.68;;;20.10;98.00;;;;;;5045459;28;20045;-66
2023/05/05 09:59:59;;;;;;;14.80;10.23;;;19.90;97.00;;;;;;5039010;28;20507;-67
2023/05/05 10:02:37;;;;;;;13.77;9.98;;;19.90;97.30;;;;;;5040585;28;20663;-66
2023/05/05 10:05:07;;;;;;;16.35;9.90;;;19.70;97.60;;;;;;5040947;28;20052;-66
2023/05/05 10:07:34;;;;;;;12.38;8.35;;;19.70;96.50;;;;;;5042892;28;20094;-70
2023/05/05 10:10:02;;;;;;;13.07;8.15;;;19.50;97.10;;;;;;5030732;28;21029;-68
2023/05/05 10:12:30;;;;;;;17.25;9.50;;;19.50;96.90;;;;;;5032907;28;20504;-68
2023/05/05 10:14:56;;;;;;;12.63;7.88;;;19.40;97.40;;;;;;5044794;28;20040;-69
2023/05/05 10:17:22;;;;;;;11.90;8.50;;;19.00;98.60;;;;;;5025925;28;20064;-68
2023/05/05 10:19:51;;;;;;;13.98;8.48;;;18.80;98.00;;;;;;5026595;28;20044;-66
2023/05/05 10:22:21;;;;;;;10.77;6.85;;;18.90;98.10;;;;;;5043386;28;20040;-67
2023/05/05 10:24:59;;;;;;;12.85;8.40;;;19.00;98.50;;;;;;5023018;28;20070;-67
2023/05/05 10:27:28;;;;;;;12.82;7.30;;;19.20;98.20;;;;;;5021697;28;20127;-66
2023/05/05 10:30:05;;;;;;;12.85;8.70;;;19.40;97.60;;;;;;5025910;28;20040;-65
2023/05/05 10:32:46;;;;;;;10.23;7.40;;;19.50;97.50;;;;;;5039041;28;20033;-67
2023/05/05 10:35:18;;;;;;;12.48;8.82;;;19.60;97.50;;;;;;5043884;28;20068;-65
2023/05/05 10:37:45;;;;;;;12.25;8.45;;;19.40;97.40;;;;;;5043539;28;20040;-66
2023/05/05 10:40:12;;;;;;;16.98;8.32;;;19.20;98.20;;;;;;5045721;28;20043;-66
2023/05/05 10:42:39;;;;;;;10.98;7.65;;;19.10;98.40;;;;;;5046042;28;20067;-67
2023/05/05 10:45:05;;;;;;;12.75;7.65;;;19.10;97.50;;;;;;5044044;28;20948;-67
2023/05/05 10:47:33;;;;;;;12.95;7.78;;;19.20;97.60;;;;;;5042150;28;20041;-67
2023/05/05 10:50:24;;;;;;;13.32;7.80;;;19.20;98.50;;;;;;5043901;28;20064;-67
2023/05/05 10:53:17;;;;;;;10.23;7.07;;;19.10;98.30;;;;;;5039470;28;20045;-66
2023/05/05 10:55:55;;;;;;;11.18;8.85;;;19.40;98.80;;;;;;5020294;28;20082;-67
2023/05/05 10:58:38;;;;;;;11.57;7.80;;;19.50;98.60;;;;;;5038827;28;20055;-66
2023/05/05 11:01:05;;;;;;;14.63;8.38;;;19.50;99.50;;;;;;5025736;28;20116;-66
2023/05/05 11:03:31;;;;;;;14.30;8.70;;;19.50;97.30;;;;;;5040776;28;20029;-67
2023/05/05 11:06:08;;;;;;;11.43;8.18;;;19.30;97.90;;;;;;5042188;28;20067;-67
2023/05/05 11:08:39;;;;;;;17.15;7.35;;;19.30;97.80;;;;;;5043156;28;20110;-67
2023/05/05 11:11:05;;;;;;;12.93;8.20;;;19.30;97.70;;;;;;5043623;28;20049;-67
2023/05/05 11:13:31;;;;;;;11.45;7.38;;;19.50;97.70;;;;;;5043073;28;20067;-67
2023/05/05 11:15:57;;;;;;;;;;;19.70;98.30;;;;;;5043430;28;20064;-67
2023/05/05 11:18:36;;;;;;;12.50;7.68;;;19.80;97.90;;;;;;5043083;28;19921;-66
2023/05/05 11:21:14;;;;;;;12.75;8.13;;;19.90;97.10;;;;;;5042477;28;20489;-67
2023/05/05 11:23:48;;;;;;;16.58;8.00;;;20.00;97.40;;;;;;5043213;28;20084;-66
2023/05/05 11:26:15;;;;;;;12.75;8.27;;;19.80;97.30;;;;;;5043333;28;20045;-66
2023/05/05 11:28:59;;;;;;;14.55;8.05;;;19.70;96.80;;;;;;5043672;28;20073;-66
2023/05/05 11:31:25;;;;;;;11.52;8.60;;;19.50;97.30;;;;;;5029533;28;20071;-66
2023/05/05 11:33:51;;;;;;;19.17;9.27;;;19.20;98.10;;;;;;5039967;28;20033;-67
2023/05/05 11:36:19;;;;;;;13.73;9.35;;;19.00;98.80;;;;;;5039601;28;20707;-67
2023/05/05 11:39:07;;;;;;;11.38;7.90;;;18.60;99.70;;;;;;5043775;28;20045;-67
2023/05/05 11:41:47;;;;;;;9.73;7.97;;;18.20;99.90;;;;;;5025456;28;20601;-66
2023/05/05 11:44:18;;;;;;;12.68;7.85;;;18.10;99.90;;;;;;5042381;28;20084;-66
2023/05/05 11:46:52;;;;;;;12.02;7.78;;;18.10;99.90;;;;;;5041321;28;20041;-65
2023/05/05 11:49:28;;;;;;;12.63;7.07;;;17.90;99.90;;;;;;5042332;28;20511;-65
2023/05/05 11:51:58;;;;;;;8.43;6.20;;;17.90;99.90;;;;;;5040067;28;20047;-66
2023/05/05 11:54:25;;;;;;;12.10;7.13;;;17.90;99.90;;;;;;5042438;28;20834;-66
2023/05/05 11:56:54;;;;;;;9.20;6.72;;;17.70;99.90;;;;;;5043636;28;20045;-65
2023/05/05 11:59:20;;;;;;;10.45;6.18;;;17.30;99.90;;;;;;5042705;28;20041;-65
2023/05/05 12:01:46;;;;;;;10.27;6.40;;;16.90;99.90;;;;;;5041003;28;20032;-65
2023/05/05 12:10:37;;;;;;;26.52;10.38;;;16.50;99.90;;;;;;5036180;28;20052;-65
2023/05/05 12:13:02;;;;;;;;;;;16.40;99.90;;;;;;5036789;28;20401;-66
2023/05/05 12:15:29;;;;;;;19.20;8.65;;;16.30;99.90;;;;;;5034634;28;19917;-65
2023/05/05 12:17:55;;;;;;;12.05;7.65;;;16.10;99.90;;;;;;5044436;28;20682;-65
2023/05/05 12:20:31;;;;;;;;;;;16.10;99.90;;;;;;5039362;28;20132;-66
2023/05/05 12:23:01;;;;;;;17.58;7.72;;;16.10;99.90;;;;;;5036526;28;19927;-66
2023/05/05 12:25:35;;;;;;;16.20;8.98;;;16.10;99.90;;;;;;5040930;28;20036;-66
2023/05/05 12:28:01;;;;;;;16.23;10.02;;;16.10;99.90;;;;;;5045964;28;20095;-67
2023/05/05 12:30:26;;;;;;;;;;;16.00;99.90;;;;;;5045125;28;20155;-68
2023/05/05 12:33:03;;;;;;;26.55;10.70;;;15.90;99.90;;;;;;5044661;28;19925;-68
2023/05/05 12:35:29;;;;;;;;;;;15.60;99.90;;;;;;5045210;28;20076;-69
2023/05/05 12:37:54;;;;;;;19.50;10.60;;;15.50;99.90;;;;;;5045858;28;19920;-64
2023/05/05 12:40:50;;;;;;;17.88;10.52;;;15.50;99.90;;;;;;5045774;28;20047;-68
2023/05/05 12:43:42;;;;;;;17.25;9.95;;;15.60;99.90;;;;;;5027476;28;20037;-67
2023/05/05 12:46:12;;;;;;;14.15;9.73;;;15.60;99.90;;;;;;5037255;28;20049;-64
2023/05/05 12:48:40;;;;;;;12.82;9.02;;;15.70;99.90;;;;;;5040195;28;20040;-66
2023/05/05 12:51:17;;;;;;;11.63;8.73;;;15.70;99.90;;;;;;5044816;28;20076;-65
2023/05/05 12:53:44;;;;;;;13.05;8.88;;;16.10;99.90;;;;;;5039954;28;20069;-66
2023/05/05 12:56:33;;;;;;;11.82;8.20;;;16.30;99.90;;;;;;5044212;28;20072;-65
2023/05/05 12:59:01;;;;;;;13.20;9.13;;;16.60;99.90;;;;;;5041889;28;20037;-65
2023/05/05 13:01:28;;;;;;;13.60;8.50;;;16.80;99.90;;;;;;5042137;28;20041;-67
2023/05/05 13:04:07;;;;;;;13.20;7.78;;;16.70;99.90;;;;;;5043251;28;20037;-64
2023/05/05 13:06:34;;;;;;;12.65;8.20;;;16.80;99.90;;;;;;5027920;28;20045;-64
2023/05/05 13:09:00;;;;;;;17.50;9.40;;;16.90;99.90;;;;;;5045133;28;20052;-65
2023/05/05 13:11:26;;;;;;;;;;;16.80;99.90;;;;;;5045466;28;20037;-66